createdAt,value
2023-03-07T00:00:08.385Z,22.30
2023-03-07T00:02:56.486Z,22.80
2023-03-07T00:05:24.710Z,30.70
2023-03-07T00:07:52.875Z,54.30
2023-03-07T00:10:21.052Z,41.10
2023-03-07T00:12:49.214Z,21.90
2023-03-07T00:15:18.011Z,26.10
2023-03-07T00:17:46.175Z,36.70
2023-03-07T00:20:15.476Z,56.80
2023-03-07T00:22:44.368Z,63.40
2023-03-07T00:25:13.488Z,58.50
2023-03-07T00:27:41.834Z,38.90
2023-03-07T00:30:12.606Z,35.50
2023-03-07T00:32:40.984Z,32.70
2023-03-07T00:35:09.219Z,31.30
2023-03-07T00:37:37.388Z,40.60
2023-03-07T00:40:07.604Z,31.80
2023-03-07T00:42:35.794Z,25.70
2023-03-07T00:45:04.261Z,34.50
2023-03-07T00:47:32.541Z,37.30
2023-03-07T00:50:00.811Z,38.40
2023-03-07T00:52:28.934Z,38.50
2023-03-07T00:54:57.363Z,26.40
2023-03-07T00:57:25.742Z,28.10
2023-03-07T00:59:54.115Z,28.40
2023-03-07T01:02:22.493Z,33.30
2023-03-07T01:04:50.768Z,31.90
2023-03-07T01:07:18.940Z,37.00
2023-03-07T01:09:51.512Z,29.00
2023-03-07T01:12:19.900Z,25.10
2023-03-07T01:14:51.218Z,23.90
2023-03-07T01:17:19.517Z,24.30
2023-03-07T01:19:47.993Z,28.10
2023-03-07T01:22:16.372Z,42.50
2023-03-07T01:24:44.577Z,30.20
2023-03-07T01:27:12.817Z,29.80
2023-03-07T01:29:41.195Z,33.10
2023-03-07T01:32:09.877Z,29.80
2023-03-07T01:34:38.564Z,33.00
2023-03-07T01:37:06.734Z,65.50
2023-03-07T01:39:35.218Z,62.70
2023-03-07T01:42:09.633Z,73.30
2023-03-07T01:45:02.902Z,58.80
2023-03-07T01:47:43.634Z,54.50
2023-03-07T01:50:16.541Z,49.70
2023-03-07T01:52:52.502Z,49.10
2023-03-07T01:55:25.212Z,42.40
2023-03-07T01:57:57.033Z,36.70
2023-03-07T02:00:31.250Z,34.60
2023-03-07T02:03:39.330Z,37.00
2023-03-07T02:06:11.420Z,33.80
2023-03-07T02:08:40.100Z,36.00
2023-03-07T02:11:08.787Z,37.80
2023-03-07T02:13:36.954Z,37.50
2023-03-07T02:16:06.682Z,35.50
2023-03-07T02:18:39.034Z,32.60
2023-03-07T02:21:30.348Z,32.80
2023-03-07T02:24:16.644Z,30.50
2023-03-07T02:26:47.173Z,29.80
2023-03-07T02:29:16.061Z,30.30
2023-03-07T02:31:47.409Z,30.30
2023-03-07T02:34:27.781Z,57.70
2023-03-07T02:37:09.079Z,94.50
2023-03-07T02:39:39.561Z,110.30
2023-03-07T02:42:10.532Z,122.20
2023-03-07T02:44:47.078Z,158.10
2023-03-07T02:47:17.001Z,73.10
2023-03-07T02:49:45.267Z,38.20
2023-03-07T02:52:13.644Z,43.40
2023-03-07T02:54:41.918Z,48.40
2023-03-07T02:57:10.911Z,34.80
2023-03-07T02:59:39.083Z,32.70
2023-03-07T03:02:08.077Z,30.30
2023-03-07T03:04:36.588Z,32.70
2023-03-07T03:07:04.933Z,28.60
2023-03-07T03:09:33.117Z,29.80
2023-03-07T03:12:01.284Z,30.60
2023-03-07T03:14:30.788Z,30.30
2023-03-07T03:16:59.058Z,28.80
2023-03-07T03:19:29.182Z,31.30
2023-03-07T03:21:57.867Z,31.80
2023-03-07T03:24:26.546Z,32.30
2023-03-07T03:26:58.312Z,31.30
2023-03-07T03:29:27.811Z,30.90
2023-03-07T03:31:58.848Z,27.80
2023-03-07T03:34:27.527Z,28.80
2023-03-07T03:36:55.806Z,29.50
2023-03-07T03:39:24.284Z,29.70
2023-03-07T03:41:57.272Z,31.40
2023-03-07T03:44:25.645Z,31.70
2023-03-07T03:46:55.942Z,31.60
2023-03-07T03:51:54.261Z,36.60
2023-03-07T03:54:22.940Z,55.00
2023-03-07T03:56:51.226Z,40.50
2023-03-07T03:59:19.387Z,39.10
2023-03-07T04:01:48.042Z,37.30
2023-03-07T04:04:16.552Z,41.60
2023-03-07T04:06:44.929Z,46.90
2023-03-07T04:09:13.097Z,39.50
2023-03-07T04:14:12.020Z,33.20
2023-03-07T04:16:40.582Z,36.70
2023-03-07T04:19:12.929Z,36.80
2023-03-07T04:21:41.331Z,34.30
2023-03-07T04:24:10.223Z,37.70
2023-03-07T04:26:38.320Z,44.90
2023-03-07T04:29:06.577Z,37.10
2023-03-07T04:31:40.079Z,40.00
2023-03-07T04:34:08.946Z,42.20
2023-03-07T04:36:37.230Z,37.40
2023-03-07T04:39:05.400Z,34.20
2023-03-07T04:41:34.292Z,32.30
2023-03-07T04:44:06.757Z,32.00
2023-03-07T04:46:35.038Z,34.30
2023-03-07T04:49:03.206Z,33.20
2023-03-07T04:51:31.482Z,36.90
2023-03-07T04:53:59.859Z,32.00
2023-03-07T04:56:28.029Z,34.60
2023-03-07T04:58:56.609Z,36.90
2023-03-07T05:01:24.820Z,34.90
2023-03-07T05:03:53.157Z,34.00
2023-03-07T05:06:22.070Z,31.20
2023-03-07T05:08:52.168Z,35.80
2023-03-07T05:11:21.159Z,32.20
2023-03-07T05:13:50.460Z,36.30
2023-03-07T05:18:49.462Z,32.50
2023-03-07T05:21:18.262Z,34.30
2023-03-07T05:23:46.626Z,34.60
2023-03-07T05:26:15.312Z,33.70
2023-03-07T05:28:43.687Z,31.60
2023-03-07T05:31:11.890Z,33.20
2023-03-07T05:33:42.799Z,31.60
2023-03-07T05:36:11.788Z,28.80
2023-03-07T05:38:40.581Z,28.30
2023-03-07T05:41:09.375Z,31.70
2023-03-07T05:43:37.533Z,30.10
2023-03-07T05:46:06.133Z,29.90
2023-03-07T05:48:34.561Z,42.40
2023-03-07T05:51:02.865Z,41.60
2023-03-07T05:53:31.972Z,37.50
2023-03-07T05:56:00.550Z,38.10
2023-03-07T05:58:29.743Z,32.40
2023-03-07T06:00:58.016Z,34.50
2023-03-07T06:03:26.962Z,32.50
2023-03-07T06:05:55.181Z,34.00
2023-03-07T06:08:23.762Z,32.50
2023-03-07T06:10:53.674Z,30.70
2023-03-07T06:13:24.307Z,31.30
2023-03-07T06:15:53.743Z,30.00
2023-03-07T06:18:23.311Z,32.80
2023-03-07T06:21:02.027Z,32.00
2023-03-07T06:23:33.916Z,38.20
2023-03-07T06:26:03.783Z,35.40
2023-03-07T06:28:32.994Z,36.60
2023-03-07T06:31:09.202Z,29.80
2023-03-07T06:33:37.654Z,33.90
2023-03-07T06:36:11.855Z,31.30
2023-03-07T06:38:41.565Z,27.80
2023-03-07T06:41:10.346Z,31.50
2023-03-07T06:43:39.748Z,34.20
2023-03-07T06:46:08.812Z,31.80
2023-03-07T06:48:40.086Z,32.20
2023-03-07T06:51:11.228Z,33.00
2023-03-07T06:53:41.450Z,32.90
2023-03-07T06:56:10.138Z,35.40
2023-03-07T06:58:39.844Z,33.60
2023-03-07T07:01:16.029Z,34.60
2023-03-07T07:03:44.578Z,33.50
2023-03-07T07:06:12.761Z,34.00
2023-03-07T07:08:42.051Z,32.10
2023-03-07T07:11:10.742Z,37.20
2023-03-07T07:13:39.521Z,39.30
2023-03-07T07:16:09.053Z,29.90
2023-03-07T07:18:38.220Z,30.80
2023-03-07T07:21:06.906Z,46.30
2023-03-07T07:23:35.081Z,41.70
2023-03-07T07:26:05.198Z,46.20
2023-03-07T07:28:34.403Z,34.20
2023-03-07T07:31:04.324Z,40.00
2023-03-07T07:33:33.710Z,33.00
2023-03-07T07:36:02.115Z,30.80
2023-03-07T07:38:30.775Z,32.20
2023-03-07T07:40:59.457Z,31.00
2023-03-07T07:43:27.628Z,31.70
2023-03-07T07:46:04.938Z,28.60
2023-03-07T07:48:33.889Z,33.00
2023-03-07T07:51:03.106Z,33.30
2023-03-07T07:53:32.193Z,33.60
2023-03-07T07:56:00.956Z,37.40
2023-03-07T07:58:29.366Z,33.70
2023-03-07T08:00:58.354Z,31.40
2023-03-07T08:03:27.145Z,32.20
2023-03-07T08:05:55.619Z,31.40
2023-03-07T08:08:23.688Z,29.70
2023-03-07T08:10:52.686Z,28.20
2023-03-07T08:13:21.061Z,29.90
2023-03-07T08:15:49.269Z,31.20
2023-03-07T08:18:17.508Z,38.00
2023-03-07T08:20:45.677Z,31.90
2023-03-07T08:23:13.859Z,30.00
2023-03-07T08:25:42.025Z,32.10
2023-03-07T08:28:10.196Z,32.20
2023-03-07T08:30:38.581Z,32.30
2023-03-07T08:33:07.575Z,36.00
2023-03-07T08:35:35.785Z,31.80
2023-03-07T08:38:04.130Z,28.20
2023-03-07T08:40:32.389Z,28.50
2023-03-07T08:43:01.183Z,27.10
2023-03-07T08:45:29.454Z,29.60
2023-03-07T08:47:58.027Z,31.10
2023-03-07T08:50:28.664Z,28.30
2023-03-07T08:52:57.967Z,28.20
2023-03-07T08:55:26.336Z,28.50
2023-03-07T08:57:54.500Z,23.60
2023-03-07T09:00:22.994Z,23.10
2023-03-07T09:02:51.172Z,28.30
2023-03-07T09:05:19.549Z,23.90
2023-03-07T09:07:47.700Z,25.00
2023-03-07T09:10:17.380Z,25.90
2023-03-07T09:12:45.432Z,24.90
2023-03-07T09:15:13.678Z,21.90
2023-03-07T09:17:41.840Z,20.30
2023-03-07T09:20:12.016Z,22.00
2023-03-07T09:22:40.219Z,21.00
2023-03-07T09:25:09.619Z,21.20
2023-03-07T09:27:37.904Z,19.00
2023-03-07T09:30:06.882Z,21.20
2023-03-07T09:32:35.125Z,17.20
2023-03-07T09:35:04.053Z,19.40
2023-03-07T09:37:32.221Z,21.50
2023-03-07T09:40:00.444Z,21.50
2023-03-07T09:42:40.359Z,22.30
2023-03-07T09:45:11.796Z,19.70
2023-03-07T09:48:25.640Z,18.70
2023-03-07T09:50:58.419Z,18.30
2023-03-07T09:53:48.256Z,17.80
2023-03-07T09:56:22.204Z,19.00
2023-03-07T09:59:22.629Z,20.00
2023-03-07T10:02:17.737Z,20.30
2023-03-07T10:04:52.562Z,18.70
2023-03-07T10:07:24.114Z,19.80
2023-03-07T10:09:57.207Z,18.40
2023-03-07T10:12:25.374Z,19.00
2023-03-07T10:15:03.896Z,18.90
2023-03-07T10:17:47.241Z,18.60
2023-03-07T10:20:45.291Z,17.80
2023-03-07T10:23:41.798Z,20.50
2023-03-07T10:26:12.379Z,18.20
2023-03-07T10:33:40.862Z,17.00
2023-03-07T10:36:35.173Z,18.50
2023-03-07T10:39:34.956Z,16.70
2023-03-07T10:42:03.131Z,15.50
2023-03-07T10:44:34.577Z,17.70
2023-03-07T10:47:03.002Z,16.00
2023-03-07T10:49:33.585Z,16.40
2023-03-07T10:52:13.230Z,18.10
2023-03-07T10:54:41.398Z,16.40
2023-03-07T10:57:14.967Z,14.80
2023-03-07T10:59:45.421Z,16.70
2023-03-07T11:02:25.982Z,14.00
2023-03-07T11:04:54.616Z,16.30
2023-03-07T11:07:29.827Z,16.30
2023-03-07T11:09:59.311Z,16.40
2023-03-07T11:12:29.527Z,13.60
2023-03-07T11:15:09.165Z,16.00
2023-03-07T11:17:45.126Z,13.30
2023-03-07T11:20:49.544Z,13.40
2023-03-07T11:23:24.583Z,13.00
2023-03-07T11:25:55.088Z,12.90
2023-03-07T11:31:04.882Z,12.30
2023-03-07T11:33:58.534Z,11.40
2023-03-07T11:36:28.135Z,12.90
2023-03-07T11:39:15.263Z,12.80
2023-03-07T11:41:47.828Z,12.80
2023-03-07T11:44:29.106Z,14.30
2023-03-07T11:47:13.367Z,11.50
2023-03-07T11:49:57.710Z,9.10
2023-03-07T11:53:12.268Z,11.30
2023-03-07T11:56:13.208Z,11.90
2023-03-07T11:59:24.591Z,13.70
2023-03-07T12:01:56.760Z,12.20
2023-03-07T12:04:43.581Z,11.30
2023-03-07T12:07:17.992Z,11.90
2023-03-07T12:10:23.640Z,13.20
2023-03-07T12:13:10.976Z,10.60
2023-03-07T12:15:51.588Z,11.10
2023-03-07T12:18:44.081Z,12.20
2023-03-07T12:21:43.270Z,11.80
2023-03-07T12:24:23.524Z,12.20
2023-03-07T12:27:03.938Z,12.10
2023-03-07T12:30:04.411Z,11.30
2023-03-07T12:32:34.122Z,11.20
2023-03-07T12:35:21.425Z,11.90
2023-03-07T12:38:14.290Z,12.90
2023-03-07T12:40:46.667Z,9.30
2023-03-07T12:43:48.118Z,10.10
2023-03-07T12:46:34.798Z,11.20
2023-03-07T12:49:49.917Z,11.20
2023-03-07T12:52:29.550Z,11.80
2023-03-07T12:55:19.415Z,8.60
2023-03-07T12:58:07.354Z,9.20
2023-03-07T13:00:43.682Z,10.20
2023-03-07T13:03:17.211Z,9.50
2023-03-07T13:05:45.690Z,10.70
2023-03-07T13:08:20.725Z,11.10
2023-03-07T13:10:48.893Z,9.20
2023-03-07T13:13:45.326Z,8.00
2023-03-07T13:16:32.580Z,9.00
2023-03-07T13:19:35.431Z,7.90
2023-03-07T13:22:16.695Z,10.50
2023-03-07T13:24:46.109Z,10.10
2023-03-07T13:27:31.388Z,9.20
2023-03-07T13:30:08.564Z,9.70
2023-03-07T13:32:52.437Z,9.90
2023-03-07T13:35:33.673Z,8.30
2023-03-07T13:38:07.810Z,8.30
2023-03-07T13:40:38.048Z,9.60
2023-03-07T13:43:28.152Z,10.30
2023-03-07T13:46:05.215Z,14.00
2023-03-07T13:48:33.353Z,8.90
2023-03-07T13:51:01.526Z,8.70
2023-03-07T13:53:44.340Z,8.00
2023-03-07T13:56:15.486Z,10.30
2023-03-07T13:59:09.987Z,9.00
2023-03-07T14:01:53.298Z,9.70
2023-03-07T14:04:51.891Z,9.00
2023-03-07T14:07:34.290Z,9.30
2023-03-07T14:10:21.481Z,9.90
2023-03-07T14:12:52.246Z,7.90
2023-03-07T14:15:29.104Z,8.60
2023-03-07T14:18:27.810Z,9.60
2023-03-07T14:21:03.559Z,10.00
2023-03-07T14:23:59.995Z,11.60
2023-03-07T14:26:58.580Z,11.60
2023-03-07T14:29:28.098Z,8.50
2023-03-07T14:31:58.453Z,8.00
2023-03-07T14:34:35.086Z,8.40
2023-03-07T14:37:07.175Z,8.50
2023-03-07T14:39:44.940Z,10.10
2023-03-07T14:42:42.603Z,9.30
2023-03-07T14:45:13.753Z,8.90
2023-03-07T14:47:51.845Z,8.50
2023-03-07T14:50:22.375Z,8.40
2023-03-07T14:52:58.228Z,9.70
2023-03-07T14:55:28.648Z,8.20
2023-03-07T14:57:56.921Z,9.40
2023-03-07T15:00:28.901Z,9.50
2023-03-07T15:03:07.690Z,8.60
2023-03-07T15:05:38.261Z,9.00
2023-03-07T15:10:46.455Z,9.90
2023-03-07T15:13:23.858Z,8.30
2023-03-07T15:16:21.066Z,7.90
2023-03-07T15:18:55.413Z,8.30
2023-03-07T15:21:24.922Z,8.40
2023-03-07T15:23:55.548Z,7.80
2023-03-07T15:26:25.158Z,8.50
2023-03-07T15:29:08.674Z,8.90
2023-03-07T15:31:58.641Z,11.80
2023-03-07T15:34:30.725Z,8.10
2023-03-07T15:37:22.498Z,9.60
2023-03-07T15:40:08.149Z,8.00
2023-03-07T15:42:49.834Z,7.70
2023-03-07T15:46:01.918Z,8.50
2023-03-07T15:48:38.111Z,8.30
2023-03-07T15:51:12.085Z,7.20
2023-03-07T15:53:41.917Z,10.40
2023-03-07T15:56:27.307Z,12.70
2023-03-07T15:59:00.264Z,9.10
2023-03-07T16:01:28.470Z,7.60
2023-03-07T16:04:03.265Z,9.40
2023-03-07T16:06:45.798Z,9.20
2023-03-07T16:09:16.418Z,11.90
2023-03-07T16:11:46.127Z,9.30
2023-03-07T16:14:26.604Z,7.90
2023-03-07T16:17:04.175Z,9.50
2023-03-07T16:19:32.349Z,9.90
2023-03-07T16:22:00.627Z,11.50
2023-03-07T16:24:28.798Z,7.80
2023-03-07T16:26:58.091Z,8.50
2023-03-07T16:29:26.263Z,9.00
2023-03-07T16:31:54.505Z,11.50
2023-03-07T16:34:23.428Z,8.80
2023-03-07T16:36:51.596Z,8.60
2023-03-07T16:39:19.870Z,10.90
2023-03-07T16:41:49.593Z,7.70
2023-03-07T16:44:20.006Z,8.30
2023-03-07T16:47:11.726Z,10.40
2023-03-07T16:49:40.024Z,9.50
2023-03-07T16:52:12.371Z,9.00
2023-03-07T16:54:40.955Z,8.50
2023-03-07T16:57:14.567Z,8.70
2023-03-07T16:59:46.181Z,10.40
2023-03-07T17:02:19.764Z,11.10
2023-03-07T17:04:48.081Z,10.40
2023-03-07T17:07:18.714Z,9.50
2023-03-07T17:09:46.883Z,9.80
2023-03-07T17:12:15.984Z,8.90
2023-03-07T17:14:44.925Z,10.10
2023-03-07T17:17:29.269Z,11.70
2023-03-07T17:19:57.500Z,10.60
2023-03-07T17:22:25.665Z,10.50
2023-03-07T17:24:53.742Z,10.00
2023-03-07T17:27:22.091Z,12.10
2023-03-07T17:29:54.608Z,8.90
2023-03-07T17:32:22.997Z,11.00
2023-03-07T17:34:51.256Z,10.70
2023-03-07T17:37:19.409Z,12.80
2023-03-07T17:39:48.634Z,11.70
2023-03-07T17:42:16.786Z,10.30
2023-03-07T17:44:44.954Z,6.90
2023-03-07T17:47:13.125Z,10.70
2023-03-07T17:49:41.397Z,9.30
2023-03-07T17:52:09.892Z,7.50
2023-03-07T17:54:38.561Z,8.00
2023-03-07T17:57:08.168Z,9.50
2023-03-07T17:59:36.442Z,11.10
2023-03-07T18:02:05.821Z,9.80
2023-03-07T18:04:34.017Z,13.40
2023-03-07T18:07:02.201Z,10.60
2023-03-07T18:09:31.181Z,9.00
2023-03-07T18:11:59.975Z,9.20
2023-03-07T18:14:28.549Z,9.10
2023-03-07T18:16:56.928Z,8.20
2023-03-07T18:19:26.949Z,10.20
2023-03-07T18:21:55.668Z,7.70
2023-03-07T18:24:26.623Z,6.70
2023-03-07T18:26:55.789Z,7.20
2023-03-07T18:29:24.544Z,11.40
2023-03-07T18:31:52.933Z,11.10
2023-03-07T18:34:21.604Z,11.20
2023-03-07T18:36:51.835Z,12.00
2023-03-07T18:39:21.631Z,8.90
2023-03-07T18:41:50.033Z,5.10
2023-03-07T18:44:18.896Z,4.20
2023-03-07T18:46:47.211Z,11.60
2023-03-07T18:49:16.267Z,5.90
2023-03-07T18:51:46.215Z,5.80
2023-03-07T18:54:14.461Z,14.30
2023-03-07T18:56:46.494Z,7.50
2023-03-07T18:59:15.320Z,5.60
2023-03-07T19:01:44.255Z,7.40
2023-03-07T19:04:12.466Z,3.60
2023-03-07T19:06:44.817Z,3.70
2023-03-07T19:09:18.645Z,3.90
2023-03-07T19:11:47.652Z,4.60
2023-03-07T19:14:15.910Z,4.10
2023-03-07T19:16:44.130Z,4.60
2023-03-07T19:19:12.358Z,3.80
2023-03-07T19:21:40.532Z,2.90
2023-03-07T19:24:11.586Z,3.30
2023-03-07T19:26:41.084Z,4.60
2023-03-07T19:29:11.314Z,2.90
2023-03-07T19:31:41.064Z,2.50
2023-03-07T19:34:09.788Z,6.50
2023-03-07T19:36:39.401Z,2.30
2023-03-07T19:39:15.321Z,2.80
2023-03-07T19:41:45.672Z,3.30
2023-03-07T19:44:14.791Z,5.00
2023-03-07T19:46:46.558Z,4.00
2023-03-07T19:49:18.181Z,5.20
2023-03-07T19:51:46.459Z,4.00
2023-03-07T19:54:15.352Z,4.10
2023-03-07T19:56:45.767Z,3.40
2023-03-07T19:59:14.044Z,3.60
2023-03-07T20:01:42.588Z,6.10
2023-03-07T20:04:16.218Z,6.10
2023-03-07T20:06:44.974Z,5.70
2023-03-07T20:09:13.587Z,5.70
2023-03-07T20:11:45.452Z,5.60
2023-03-07T20:14:13.738Z,6.70
2023-03-07T20:16:42.001Z,7.50
2023-03-07T20:19:10.886Z,7.80
2023-03-07T20:21:40.397Z,17.70
2023-03-07T20:24:09.400Z,19.20
2023-03-07T20:26:39.290Z,7.60
2023-03-07T20:29:09.646Z,8.00
2023-03-07T20:31:39.578Z,7.50
2023-03-07T20:34:08.448Z,6.30
2023-03-07T20:36:37.775Z,7.30
2023-03-07T20:39:08.364Z,7.80
2023-03-07T20:44:08.008Z,9.40
2023-03-07T20:46:37.827Z,8.70
2023-03-07T20:49:06.357Z,7.60
2023-03-07T20:51:36.278Z,6.70
2023-03-07T20:54:07.285Z,6.60
2023-03-07T20:56:37.000Z,7.00
2023-03-07T20:59:06.424Z,7.40
2023-03-07T21:01:35.680Z,8.20
2023-03-07T21:04:06.417Z,7.20
2023-03-07T21:06:35.656Z,8.70
2023-03-07T21:09:08.124Z,7.40
2023-03-07T21:11:38.146Z,7.30
2023-03-07T21:14:06.727Z,6.70
2023-03-07T21:16:35.046Z,8.90
2023-03-07T21:19:05.223Z,6.80
2023-03-07T21:21:35.009Z,7.30
2023-03-07T21:24:04.017Z,7.10
2023-03-07T21:26:34.345Z,7.00
2023-03-07T21:29:05.998Z,9.80
2023-03-07T21:31:35.511Z,8.30
2023-03-07T21:34:06.742Z,8.90
2023-03-07T21:36:35.017Z,6.80
2023-03-07T21:39:10.358Z,13.20
2023-03-07T21:41:38.833Z,14.00
2023-03-07T21:44:07.531Z,12.20
2023-03-07T21:46:35.895Z,12.10
2023-03-07T21:49:04.174Z,10.30
2023-03-07T21:51:32.342Z,9.10
2023-03-07T21:54:01.025Z,13.10
2023-03-07T21:56:29.197Z,22.50
2023-03-07T21:58:57.676Z,25.50
2023-03-07T22:01:28.944Z,12.30
2023-03-07T22:03:59.483Z,18.20
2023-03-07T22:08:59.389Z,17.50
2023-03-07T22:13:55.941Z,24.20
2023-03-07T22:16:24.277Z,25.50
2023-03-07T22:18:56.807Z,27.10
2023-03-07T22:21:26.471Z,21.90
2023-03-07T22:23:58.342Z,30.50
2023-03-07T22:26:28.663Z,31.10
2023-03-07T22:28:56.939Z,34.80
2023-03-07T22:31:25.752Z,22.00
2023-03-07T22:33:54.101Z,12.30
2023-03-07T22:36:22.270Z,10.20
2023-03-07T22:38:55.340Z,7.90
2023-03-07T22:41:24.572Z,9.60
2023-03-07T22:43:52.835Z,7.10
2023-03-07T22:46:22.003Z,6.60
2023-03-07T22:48:55.010Z,16.00
2023-03-07T22:51:24.528Z,9.10
2023-03-07T22:53:53.099Z,10.70
2023-03-07T22:56:24.243Z,10.60
2023-03-07T22:58:52.719Z,16.30
2023-03-07T23:01:25.910Z,15.90
2023-03-07T23:03:55.316Z,10.10
2023-03-07T23:06:25.941Z,11.60
2023-03-07T23:11:24.127Z,8.10
2023-03-07T23:13:53.116Z,6.90
2023-03-07T23:16:24.058Z,6.60
2023-03-07T23:18:55.028Z,8.10
2023-03-07T23:21:27.056Z,4.50
2023-03-07T23:23:56.048Z,7.00
2023-03-07T23:26:26.591Z,7.60
2023-03-07T23:28:55.360Z,6.30
2023-03-07T23:31:32.509Z,5.30
2023-03-07T23:34:02.455Z,6.00
2023-03-07T23:36:32.066Z,4.70
2023-03-07T23:39:00.859Z,8.10
2023-03-07T23:41:29.035Z,7.20
2023-03-07T23:43:59.653Z,6.70
2023-03-07T23:46:28.775Z,8.00
2023-03-07T23:48:57.443Z,9.70
2023-03-07T23:51:25.920Z,11.90
2023-03-07T23:53:53.988Z,12.00
2023-03-07T23:56:22.250Z,12.50
2023-03-07T23:58:51.653Z,8.90
